sensor_id;sensor_type;location;lat;lon;timestamp;temperature;humidity
19017;DHT22;9641;51.494;6.670;2023-02-28T00:02:01;-0.40;40.10
19017;DHT22;9641;51.494;6.670;2023-02-28T00:04:27;-0.30;23.20
19017;DHT22;9641;51.494;6.670;2023-02-28T00:06:54;-0.40;14.60
19017;DHT22;9641;51.494;6.670;2023-02-28T00:09:21;-0.40;23.60
19017;DHT22;9641;51.494;6.670;2023-02-28T00:11:48;-0.50;25.10
19017;DHT22;9641;51.494;6.670;2023-02-28T00:14:15;-0.50;31.50
19017;DHT22;9641;51.494;6.670;2023-02-28T00:16:43;-0.30;3.10
19017;DHT22;9641;51.494;6.670;2023-02-28T00:19:10;-0.40;10.30
19017;DHT22;9641;51.494;6.670;2023-02-28T00:21:38;-0.50;13.30
19017;DHT22;9641;51.494;6.670;2023-02-28T00:24:06;-0.60;28.60
19017;DHT22;9641;51.494;6.670;2023-02-28T00:26:33;-0.60;41.80
19017;DHT22;9641;51.494;6.670;2023-02-28T00:28:59;-0.60;42.00
19017;DHT22;9641;51.494;6.670;2023-02-28T00:31:26;-0.50;27.30
19017;DHT22;9641;51.494;6.670;2023-02-28T00:33:54;-0.40;15.30
19017;DHT22;9641;51.494;6.670;2023-02-28T00:36:21;-0.40;17.00
19017;DHT22;9641;51.494;6.670;2023-02-28T00:38:48;-0.40;14.40
19017;DHT22;9641;51.494;6.670;2023-02-28T00:41:15;-0.40;4.50
19017;DHT22;9641;51.494;6.670;2023-02-28T00:43:42;-0.50;6.50
19017;DHT22;9641;51.494;6.670;2023-02-28T00:46:10;-0.40;1.00
19017;DHT22;9641;51.494;6.670;2023-02-28T00:48:37;-0.50;2.00
19017;DHT22;9641;51.494;6.670;2023-02-28T00:51:05;-0.60;16.70
19017;DHT22;9641;51.494;6.670;2023-02-28T00:53:32;-0.60;17.60
19017;DHT22;9641;51.494;6.670;2023-02-28T00:55:59;-0.60;14.10
19017;DHT22;9641;51.494;6.670;2023-02-28T00:58:26;-0.50;17.90
19017;DHT22;9641;51.494;6.670;2023-02-28T01:00:53;-0.50;13.40
19017;DHT22;9641;51.494;6.670;2023-02-28T01:03:21;-0.50;8.80
19017;DHT22;9641;51.494;6.670;2023-02-28T01:05:48;-0.60;12.70
19017;DHT22;9641;51.494;6.670;2023-02-28T01:08:17;-0.70;17.40
19017;DHT22;9641;51.494;6.670;2023-02-28T01:10:44;-0.80;35.80
19017;DHT22;9641;51.494;6.670;2023-02-28T01:13:11;-0.80;45.60
19017;DHT22;9641;51.494;6.670;2023-02-28T01:15:41;-0.90;47.00
19017;DHT22;9641;51.494;6.670;2023-02-28T01:18:10;-0.80;54.90
19017;DHT22;9641;51.494;6.670;2023-02-28T01:20:37;-0.80;46.30
19017;DHT22;9641;51.494;6.670;2023-02-28T01:23:04;-0.90;54.80
19017;DHT22;9641;51.494;6.670;2023-02-28T01:25:36;-0.80;52.60
19017;DHT22;9641;51.494;6.670;2023-02-28T01:28:04;-0.70;38.40
19017;DHT22;9641;51.494;6.670;2023-02-28T01:30:32;-0.70;35.90
19017;DHT22;9641;51.494;6.670;2023-02-28T01:33:00;-0.60;29.70
19017;DHT22;9641;51.494;6.670;2023-02-28T01:35:27;-0.60;24.00
19017;DHT22;9641;51.494;6.670;2023-02-28T01:37:54;-0.60;21.10
19017;DHT22;9641;51.494;6.670;2023-02-28T01:40:20;-0.70;31.60
19017;DHT22;9641;51.494;6.670;2023-02-28T01:42:49;-0.60;31.90
19017;DHT22;9641;51.494;6.670;2023-02-28T01:45:22;-0.70;24.10
19017;DHT22;9641;51.494;6.670;2023-02-28T01:47:51;-0.80;30.20
19017;DHT22;9641;51.494;6.670;2023-02-28T01:50:21;-0.90;38.80
19017;DHT22;9641;51.494;6.670;2023-02-28T01:52:49;-1.10;48.50
19017;DHT22;9641;51.494;6.670;2023-02-28T01:55:19;-1.10;55.70
19017;DHT22;9641;51.494;6.670;2023-02-28T01:57:52;-1.20;58.00
19017;DHT22;9641;51.494;6.670;2023-02-28T02:00:23;-1.20;71.40
19017;DHT22;9641;51.494;6.670;2023-02-28T02:02:55;-1.10;68.50
19017;DHT22;9641;51.494;6.670;2023-02-28T02:05:25;-0.90;56.60
19017;DHT22;9641;51.494;6.670;2023-02-28T02:07:55;-0.80;28.70
19017;DHT22;9641;51.494;6.670;2023-02-28T02:10:27;-0.80;24.20
19017;DHT22;9641;51.494;6.670;2023-02-28T02:13:14;-0.80;20.70
19017;DHT22;9641;51.494;6.670;2023-02-28T02:15:53;-0.70;7.30
19017;DHT22;9641;51.494;6.670;2023-02-28T02:18:28;-0.90;12.50
19017;DHT22;9641;51.494;6.670;2023-02-28T02:21:41;-1.00;37.00
19017;DHT22;9641;51.494;6.670;2023-02-28T02:24:42;-0.80;26.90
19017;DHT22;9641;51.494;6.670;2023-02-28T02:33:31;-1.10;44.00
19017;DHT22;9641;51.494;6.670;2023-02-28T02:36:07;-1.30;57.80
19017;DHT22;9641;51.494;6.670;2023-02-28T02:38:43;-1.40;76.80
19017;DHT22;9641;51.494;6.670;2023-02-28T02:41:18;-1.50;75.30
19017;DHT22;9641;51.494;6.670;2023-02-28T02:43:49;-1.60;87.90
19017;DHT22;9641;51.494;6.670;2023-02-28T02:46:21;-1.80;95.50
19017;DHT22;9641;51.494;6.670;2023-02-28T02:48:52;-1.80;99.90
19017;DHT22;9641;51.494;6.670;2023-02-28T02:51:23;-1.90;99.90
19017;DHT22;9641;51.494;6.670;2023-02-28T02:53:53;-1.90;99.90
19017;DHT22;9641;51.494;6.670;2023-02-28T02:56:25;-1.90;99.90
19017;DHT22;9641;51.494;6.670;2023-02-28T02:58:57;-2.00;99.90
19017;DHT22;9641;51.494;6.670;2023-02-28T03:01:29;-2.10;99.90
19017;DHT22;9641;51.494;6.670;2023-02-28T03:03:58;-2.20;99.90
19017;DHT22;9641;51.494;6.670;2023-02-28T03:06:27;-2.20;99.90
19017;DHT22;9641;51.494;6.670;2023-02-28T03:08:54;-2.20;99.90
19017;DHT22;9641;51.494;6.670;2023-02-28T03:11:22;-2.20;99.90
19017;DHT22;9641;51.494;6.670;2023-02-28T03:14:01;-2.20;99.90
19017;DHT22;9641;51.494;6.670;2023-02-28T03:16:45;-2.30;99.90
19017;DHT22;9641;51.494;6.670;2023-02-28T03:19:34;-2.30;99.90
19017;DHT22;9641;51.494;6.670;2023-02-28T03:22:40;-2.30;99.90
19017;DHT22;9641;51.494;6.670;2023-02-28T03:25:15;-2.30;99.90
19017;DHT22;9641;51.494;6.670;2023-02-28T03:27:51;-2.30;99.90
19017;DHT22;9641;51.494;6.670;2023-02-28T03:30:24;-2.30;99.90
19017;DHT22;9641;51.494;6.670;2023-02-28T03:32:56;-2.30;99.90
19017;DHT22;9641;51.494;6.670;2023-02-28T03:35:26;-2.40;99.90
19017;DHT22;9641;51.494;6.670;2023-02-28T03:38:00;-2.40;99.90
19017;DHT22;9641;51.494;6.670;2023-02-28T03:40:33;-2.40;99.90
19017;DHT22;9641;51.494;6.670;2023-02-28T03:43:04;-2.40;99.90
19017;DHT22;9641;51.494;6.670;2023-02-28T03:45:36;-2.50;99.90
19017;DHT22;9641;51.494;6.670;2023-02-28T03:48:09;-2.50;99.90
19017;DHT22;9641;51.494;6.670;2023-02-28T03:50:41;-2.50;99.90
19017;DHT22;9641;51.494;6.670;2023-02-28T03:53:12;-2.50;99.90
19017;DHT22;9641;51.494;6.670;2023-02-28T03:55:43;-2.50;99.90
19017;DHT22;9641;51.494;6.670;2023-02-28T03:58:16;-2.50;99.90
19017;DHT22;9641;51.494;6.670;2023-02-28T04:00:50;-2.50;99.90
19017;DHT22;9641;51.494;6.670;2023-02-28T04:03:21;-2.50;99.90
19017;DHT22;9641;51.494;6.670;2023-02-28T04:05:51;-2.50;99.90
19017;DHT22;9641;51.494;6.670;2023-02-28T04:08:20;-2.50;99.90
19017;DHT22;9641;51.494;6.670;2023-02-28T04:10:51;-2.50;99.90
19017;DHT22;9641;51.494;6.670;2023-02-28T04:13:19;-2.50;99.90
19017;DHT22;9641;51.494;6.670;2023-02-28T04:15:46;-2.60;99.90
19017;DHT22;9641;51.494;6.670;2023-02-28T04:18:13;-2.40;99.90
19017;DHT22;9641;51.494;6.670;2023-02-28T04:20:40;-2.40;99.90
19017;DHT22;9641;51.494;6.670;2023-02-28T04:23:07;-2.50;99.90
19017;DHT22;9641;51.494;6.670;2023-02-28T04:25:35;-2.50;99.90
19017;DHT22;9641;51.494;6.670;2023-02-28T04:28:02;-2.50;99.90
19017;DHT22;9641;51.494;6.670;2023-02-28T04:30:28;-2.50;99.90
19017;DHT22;9641;51.494;6.670;2023-02-28T04:32:58;-2.40;99.90
19017;DHT22;9641;51.494;6.670;2023-02-28T04:35:25;-2.30;99.90
19017;DHT22;9641;51.494;6.670;2023-02-28T04:37:52;-2.40;99.90
19017;DHT22;9641;51.494;6.670;2023-02-28T04:40:18;-2.20;98.80
19017;DHT22;9641;51.494;6.670;2023-02-28T04:42:47;-2.20;79.40
19017;DHT22;9641;51.494;6.670;2023-02-28T04:45:14;-2.30;75.70
19017;DHT22;9641;51.494;6.670;2023-02-28T04:47:40;-2.50;90.90
19017;DHT22;9641;51.494;6.670;2023-02-28T04:50:08;-2.40;97.50
19017;DHT22;9641;51.494;6.670;2023-02-28T04:52:35;-2.40;91.20
19017;DHT22;9641;51.494;6.670;2023-02-28T04:55:02;-2.30;82.90
19017;DHT22;9641;51.494;6.670;2023-02-28T04:57:29;-2.30;72.90
19017;DHT22;9641;51.494;6.670;2023-02-28T04:59:58;-2.20;63.10
19017;DHT22;9641;51.494;6.670;2023-02-28T05:02:24;-2.10;32.50
19017;DHT22;9641;51.494;6.670;2023-02-28T05:04:51;-2.00;19.70
19017;DHT22;9641;51.494;6.670;2023-02-28T05:07:18;-1.90;2.00
19017;DHT22;9641;51.494;6.670;2023-02-28T05:09:54;-1.90;1.00
19017;DHT22;9641;51.494;6.670;2023-02-28T05:12:22;-1.90;1.00
19017;DHT22;9641;51.494;6.670;2023-02-28T05:14:48;-1.90;1.00
19017;DHT22;9641;51.494;6.670;2023-02-28T05:17:17;-1.90;1.00
19017;DHT22;9641;51.494;6.670;2023-02-28T05:19:43;-1.90;1.00
19017;DHT22;9641;51.494;6.670;2023-02-28T05:22:14;-1.90;1.00
19017;DHT22;9641;51.494;6.670;2023-02-28T05:24:42;-2.00;1.00
19017;DHT22;9641;51.494;6.670;2023-02-28T05:27:09;-2.20;1.00
19017;DHT22;9641;51.494;6.670;2023-02-28T05:29:36;-2.30;15.00
19017;DHT22;9641;51.494;6.670;2023-02-28T05:32:08;-2.40;17.30
19017;DHT22;9641;51.494;6.670;2023-02-28T05:34:37;-2.50;24.10
19017;DHT22;9641;51.494;6.670;2023-02-28T05:37:04;-2.50;48.00
19017;DHT22;9641;51.494;6.670;2023-02-28T05:39:31;-2.50;49.00
19017;DHT22;9641;51.494;6.670;2023-02-28T05:41:58;-2.40;40.90
19017;DHT22;9641;51.494;6.670;2023-02-28T05:44:25;-2.30;18.00
19017;DHT22;9641;51.494;6.670;2023-02-28T05:46:52;-2.40;15.30
19017;DHT22;9641;51.494;6.670;2023-02-28T05:49:18;-2.40;20.50
19017;DHT22;9641;51.494;6.670;2023-02-28T05:51:47;-2.40;9.30
19017;DHT22;9641;51.494;6.670;2023-02-28T05:54:20;-2.40;1.70
19017;DHT22;9641;51.494;6.670;2023-02-28T05:56:46;-2.60;13.00
19017;DHT22;9641;51.494;6.670;2023-02-28T05:59:13;-2.60;27.70
19017;DHT22;9641;51.494;6.670;2023-02-28T06:01:42;-2.70;36.40
19017;DHT22;9641;51.494;6.670;2023-02-28T06:04:14;-2.70;38.80
19017;DHT22;9641;51.494;6.670;2023-02-28T06:06:43;-2.60;34.70
19017;DHT22;9641;51.494;6.670;2023-02-28T06:09:11;-2.70;25.00
19017;DHT22;9641;51.494;6.670;2023-02-28T06:11:39;-2.60;24.40
19017;DHT22;9641;51.494;6.670;2023-02-28T06:14:14;-2.60;31.00
19017;DHT22;9641;51.494;6.670;2023-02-28T06:16:41;-2.60;23.50
19017;DHT22;9641;51.494;6.670;2023-02-28T06:19:09;-2.60;26.40
19017;DHT22;9641;51.494;6.670;2023-02-28T06:21:36;-2.60;23.40
19017;DHT22;9641;51.494;6.670;2023-02-28T06:24:04;-2.60;22.40
19017;DHT22;9641;51.494;6.670;2023-02-28T06:26:32;-2.60;29.60
19017;DHT22;9641;51.494;6.670;2023-02-28T06:28:59;-2.50;21.40
19017;DHT22;9641;51.494;6.670;2023-02-28T06:31:27;-2.40;15.70
19017;DHT22;9641;51.494;6.670;2023-02-28T06:33:55;-2.40;1.00
19017;DHT22;9641;51.494;6.670;2023-02-28T06:36:22;-2.40;1.00
19017;DHT22;9641;51.494;6.670;2023-02-28T06:38:49;-2.50;1.90
19017;DHT22;9641;51.494;6.670;2023-02-28T06:41:21;-2.50;2.30
19017;DHT22;9641;51.494;6.670;2023-02-28T06:43:49;-2.40;1.00
19017;DHT22;9641;51.494;6.670;2023-02-28T06:46:16;-2.30;1.00
19017;DHT22;9641;51.494;6.670;2023-02-28T06:48:43;-2.30;1.00
19017;DHT22;9641;51.494;6.670;2023-02-28T06:51:13;-2.00;1.00
19017;DHT22;9641;51.494;6.670;2023-02-28T06:53:40;-1.90;1.00
19017;DHT22;9641;51.494;6.670;2023-02-28T06:56:09;-2.00;1.00
19017;DHT22;9641;51.494;6.670;2023-02-28T06:58:37;-2.10;1.00
19017;DHT22;9641;51.494;6.670;2023-02-28T07:01:09;-2.10;1.00
19017;DHT22;9641;51.494;6.670;2023-02-28T07:03:36;-2.10;1.00
19017;DHT22;9641;51.494;6.670;2023-02-28T07:06:04;-2.10;1.00
19017;DHT22;9641;51.494;6.670;2023-02-28T07:08:32;-2.10;1.00
19017;DHT22;9641;51.494;6.670;2023-02-28T07:10:59;-2.00;1.00
19017;DHT22;9641;51.494;6.670;2023-02-28T07:13:26;-2.00;1.00
19017;DHT22;9641;51.494;6.670;2023-02-28T07:15:54;-1.90;1.00
19017;DHT22;9641;51.494;6.670;2023-02-28T07:18:22;-1.90;1.00
19017;DHT22;9641;51.494;6.670;2023-02-28T07:20:49;-1.80;1.00
19017;DHT22;9641;51.494;6.670;2023-02-28T07:23:19;-1.70;1.00
19017;DHT22;9641;51.494;6.670;2023-02-28T07:25:52;-1.60;1.00
19017;DHT22;9641;51.494;6.670;2023-02-28T07:28:19;-1.50;1.00
19017;DHT22;9641;51.494;6.670;2023-02-28T07:30:46;-1.40;1.00
19017;DHT22;9641;51.494;6.670;2023-02-28T07:33:14;-1.30;1.00
19017;DHT22;9641;51.494;6.670;2023-02-28T07:35:42;-1.20;1.00
19017;DHT22;9641;51.494;6.670;2023-02-28T07:38:09;-1.10;1.00
19017;DHT22;9641;51.494;6.670;2023-02-28T07:40:37;-1.00;1.00
19017;DHT22;9641;51.494;6.670;2023-02-28T07:43:04;-0.90;1.00
19017;DHT22;9641;51.494;6.670;2023-02-28T07:45:31;-0.80;1.00
19017;DHT22;9641;51.494;6.670;2023-02-28T07:48:00;-0.70;1.00
19017;DHT22;9641;51.494;6.670;2023-02-28T07:50:27;-0.60;1.00
19017;DHT22;9641;51.494;6.670;2023-02-28T07:52:57;-0.50;1.00
19017;DHT22;9641;51.494;6.670;2023-02-28T07:55:27;-0.40;1.00
19017;DHT22;9641;51.494;6.670;2023-02-28T07:58:05;-0.30;1.00
19017;DHT22;9641;51.494;6.670;2023-02-28T08:00:32;-0.30;1.00
19017;DHT22;9641;51.494;6.670;2023-02-28T08:02:59;-0.40;1.00
19017;DHT22;9641;51.494;6.670;2023-02-28T08:05:25;-0.30;1.00
19017;DHT22;9641;51.494;6.670;2023-02-28T08:07:52;-0.20;1.00
19017;DHT22;9641;51.494;6.670;2023-02-28T08:10:21;-0.10;1.00
19017;DHT22;9641;51.494;6.670;2023-02-28T08:12:49;0.00;99.90
19017;DHT22;9641;51.494;6.670;2023-02-28T08:15:16;0.10;46.10
19017;DHT22;9641;51.494;6.670;2023-02-28T08:17:43;0.10;1.00
19017;DHT22;9641;51.494;6.670;2023-02-28T08:20:11;0.20;1.00
19017;DHT22;9641;51.494;6.670;2023-02-28T08:22:38;0.40;1.00
19017;DHT22;9641;51.494;6.670;2023-02-28T08:25:06;0.50;1.00
19017;DHT22;9641;51.494;6.670;2023-02-28T08:27:35;0.60;1.00
19017;DHT22;9641;51.494;6.670;2023-02-28T08:30:03;0.70;1.00
19017;DHT22;9641;51.494;6.670;2023-02-28T08:32:31;0.70;99.90
19017;DHT22;9641;51.494;6.670;2023-02-28T08:34:58;0.80;99.90
19017;DHT22;9641;51.494;6.670;2023-02-28T08:37:25;0.80;1.00
19017;DHT22;9641;51.494;6.670;2023-02-28T08:39:52;1.00;1.00
19017;DHT22;9641;51.494;6.670;2023-02-28T08:42:20;1.10;99.90
19017;DHT22;9641;51.494;6.670;2023-02-28T08:44:48;1.20;1.00
19017;DHT22;9641;51.494;6.670;2023-02-28T08:47:15;1.30;93.80
19017;DHT22;9641;51.494;6.670;2023-02-28T08:49:42;1.40;99.90
19017;DHT22;9641;51.494;6.670;2023-02-28T08:52:08;1.40;99.90
19017;DHT22;9641;51.494;6.670;2023-02-28T08:54:36;1.50;99.90
19017;DHT22;9641;51.494;6.670;2023-02-28T08:57:03;1.50;99.90
19017;DHT22;9641;51.494;6.670;2023-02-28T08:59:30;1.60;1.00
19017;DHT22;9641;51.494;6.670;2023-02-28T09:01:58;1.70;1.00
19017;DHT22;9641;51.494;6.670;2023-02-28T09:04:25;1.80;1.00
19017;DHT22;9641;51.494;6.670;2023-02-28T09:06:52;1.90;73.50
19017;DHT22;9641;51.494;6.670;2023-02-28T09:09:19;2.00;38.50
19017;DHT22;9641;51.494;6.670;2023-02-28T09:11:46;2.10;1.00
19017;DHT22;9641;51.494;6.670;2023-02-28T09:14:12;2.10;1.00
19017;DHT22;9641;51.494;6.670;2023-02-28T09:16:39;2.30;1.00
19017;DHT22;9641;51.494;6.670;2023-02-28T09:19:10;2.30;1.00
19017;DHT22;9641;51.494;6.670;2023-02-28T09:21:37;2.40;1.00
19017;DHT22;9641;51.494;6.670;2023-02-28T09:24:04;2.50;1.00
19017;DHT22;9641;51.494;6.670;2023-02-28T09:26:31;2.60;1.00
19017;DHT22;9641;51.494;6.670;2023-02-28T09:29:00;2.70;1.00
19017;DHT22;9641;51.494;6.670;2023-02-28T09:31:28;2.70;1.00
19017;DHT22;9641;51.494;6.670;2023-02-28T09:33:58;2.70;1.00
19017;DHT22;9641;51.494;6.670;2023-02-28T09:36:27;2.80;1.00
19017;DHT22;9641;51.494;6.670;2023-02-28T09:38:55;2.90;1.00
19017;DHT22;9641;51.494;6.670;2023-02-28T09:41:25;3.10;1.00
19017;DHT22;9641;51.494;6.670;2023-02-28T09:43:56;3.20;1.00
19017;DHT22;9641;51.494;6.670;2023-02-28T09:46:38;3.20;1.00
19017;DHT22;9641;51.494;6.670;2023-02-28T09:49:14;3.20;1.00
19017;DHT22;9641;51.494;6.670;2023-02-28T09:51:53;3.40;1.00
19017;DHT22;9641;51.494;6.670;2023-02-28T09:54:28;3.50;1.00
19017;DHT22;9641;51.494;6.670;2023-02-28T09:56:59;3.70;99.90
19017;DHT22;9641;51.494;6.670;2023-02-28T09:59:42;3.90;99.90
19017;DHT22;9641;51.494;6.670;2023-02-28T10:02:21;4.10;99.90
19017;DHT22;9641;51.494;6.670;2023-02-28T10:04:53;4.20;99.90
19017;DHT22;9641;51.494;6.670;2023-02-28T10:07:40;4.40;99.90
19017;DHT22;9641;51.494;6.670;2023-02-28T10:10:20;4.40;99.90
19017;DHT22;9641;51.494;6.670;2023-02-28T10:12:52;4.40;99.90
19017;DHT22;9641;51.494;6.670;2023-02-28T10:15:22;4.40;99.90
19017;DHT22;9641;51.494;6.670;2023-02-28T10:17:53;4.60;99.90
19017;DHT22;9641;51.494;6.670;2023-02-28T10:20:23;4.70;99.90
19017;DHT22;9641;51.494;6.670;2023-02-28T10:23:02;4.40;99.90
19017;DHT22;9641;51.494;6.670;2023-02-28T10:25:35;4.50;99.90
19017;DHT22;9641;51.494;6.670;2023-02-28T10:28:09;4.60;99.90
19017;DHT22;9641;51.494;6.670;2023-02-28T10:30:39;4.50;99.90
19017;DHT22;9641;51.494;6.670;2023-02-28T10:33:17;4.40;99.90
19017;DHT22;9641;51.494;6.670;2023-02-28T10:35:45;4.60;99.90
19017;DHT22;9641;51.494;6.670;2023-02-28T10:38:17;4.90;99.90
19017;DHT22;9641;51.494;6.670;2023-02-28T10:40:44;5.20;99.90
19017;DHT22;9641;51.494;6.670;2023-02-28T10:43:22;5.60;99.90
19017;DHT22;9641;51.494;6.670;2023-02-28T10:45:56;5.50;99.90
19017;DHT22;9641;51.494;6.670;2023-02-28T10:48:35;5.30;99.90
19017;DHT22;9641;51.494;6.670;2023-02-28T10:51:05;5.40;99.90
19017;DHT22;9641;51.494;6.670;2023-02-28T10:53:37;5.70;99.90
19017;DHT22;9641;51.494;6.670;2023-02-28T10:56:16;6.90;99.90
19017;DHT22;9641;51.494;6.670;2023-02-28T10:58:50;9.00;99.90
19017;DHT22;9641;51.494;6.670;2023-02-28T11:01:19;10.00;99.90
19017;DHT22;9641;51.494;6.670;2023-02-28T11:03:46;9.10;99.90
19017;DHT22;9641;51.494;6.670;2023-02-28T11:06:16;8.80;99.90
19017;DHT22;9641;51.494;6.670;2023-02-28T11:08:47;8.50;99.90
19017;DHT22;9641;51.494;6.670;2023-02-28T11:11:15;9.00;99.90
19017;DHT22;9641;51.494;6.670;2023-02-28T11:13:44;8.50;99.90
19017;DHT22;9641;51.494;6.670;2023-02-28T11:16:13;8.50;99.90
19017;DHT22;9641;51.494;6.670;2023-02-28T11:18:43;9.30;99.90
19017;DHT22;9641;51.494;6.670;2023-02-28T11:21:18;10.20;99.90
19017;DHT22;9641;51.494;6.670;2023-02-28T11:23:49;10.70;99.90
19017;DHT22;9641;51.494;6.670;2023-02-28T11:26:38;11.70;99.90
19017;DHT22;9641;51.494;6.670;2023-02-28T11:29:20;11.60;99.90
19017;DHT22;9641;51.494;6.670;2023-02-28T11:32:09;12.20;99.90
19017;DHT22;9641;51.494;6.670;2023-02-28T11:34:38;12.30;99.90
19017;DHT22;9641;51.494;6.670;2023-02-28T11:37:12;11.30;99.90
19017;DHT22;9641;51.494;6.670;2023-02-28T11:39:40;11.00;99.90
19017;DHT22;9641;51.494;6.670;2023-02-28T11:45:16;12.30;99.90
19017;DHT22;9641;51.494;6.670;2023-02-28T11:47:48;11.40;99.90
19017;DHT22;9641;51.494;6.670;2023-02-28T11:50:38;10.50;99.90
19017;DHT22;9641;51.494;6.670;2023-02-28T11:53:14;11.50;99.90
19017;DHT22;9641;51.494;6.670;2023-02-28T11:55:50;12.50;99.90
19017;DHT22;9641;51.494;6.670;2023-02-28T11:58:29;12.30;99.90
19017;DHT22;9641;51.494;6.670;2023-02-28T12:01:12;13.00;99.90
19017;DHT22;9641;51.494;6.670;2023-02-28T12:03:46;13.30;99.90
19017;DHT22;9641;51.494;6.670;2023-02-28T12:06:20;13.00;99.90
19017;DHT22;9641;51.494;6.670;2023-02-28T12:08:59;13.20;99.90
19017;DHT22;9641;51.494;6.670;2023-02-28T12:11:40;13.10;99.90
19017;DHT22;9641;51.494;6.670;2023-02-28T12:14:44;12.40;99.90
19017;DHT22;9641;51.494;6.670;2023-02-28T12:17:22;10.60;99.90
19017;DHT22;9641;51.494;6.670;2023-02-28T12:20:01;11.10;99.90
19017;DHT22;9641;51.494;6.670;2023-02-28T12:22:30;11.60;99.90
19017;DHT22;9641;51.494;6.670;2023-02-28T12:25:24;12.20;99.90
19017;DHT22;9641;51.494;6.670;2023-02-28T12:28:00;12.70;99.90
19017;DHT22;9641;51.494;6.670;2023-02-28T12:30:31;13.00;99.90
19017;DHT22;9641;51.494;6.670;2023-02-28T12:33:04;11.40;99.90
19017;DHT22;9641;51.494;6.670;2023-02-28T12:35:34;9.30;99.90
19017;DHT22;9641;51.494;6.670;2023-02-28T12:38:08;9.30;99.90
19017;DHT22;9641;51.494;6.670;2023-02-28T12:40:43;10.90;99.90
19017;DHT22;9641;51.494;6.670;2023-02-28T12:43:15;12.60;99.90
19017;DHT22;9641;51.494;6.670;2023-02-28T12:45:45;12.40;99.90
19017;DHT22;9641;51.494;6.670;2023-02-28T12:48:17;11.50;99.90
19017;DHT22;9641;51.494;6.670;2023-02-28T12:50:47;11.80;99.90
19017;DHT22;9641;51.494;6.670;2023-02-28T12:53:23;12.10;99.90
19017;DHT22;9641;51.494;6.670;2023-02-28T12:56:03;10.50;99.90
19017;DHT22;9641;51.494;6.670;2023-02-28T12:58:36;9.70;99.90
19017;DHT22;9641;51.494;6.670;2023-02-28T13:01:23;9.00;99.90
19017;DHT22;9641;51.494;6.670;2023-02-28T13:04:29;9.30;99.90
19017;DHT22;9641;51.494;6.670;2023-02-28T13:07:12;9.60;99.90
19017;DHT22;9641;51.494;6.670;2023-02-28T13:09:52;9.20;99.90
19017;DHT22;9641;51.494;6.670;2023-02-28T13:12:19;10.20;99.90
19017;DHT22;9641;51.494;6.670;2023-02-28T13:14:50;11.50;99.90
19017;DHT22;9641;51.494;6.670;2023-02-28T13:17:19;13.50;99.90
19017;DHT22;9641;51.494;6.670;2023-02-28T13:19:56;12.80;99.90
19017;DHT22;9641;51.494;6.670;2023-02-28T13:22:39;12.00;99.90
19017;DHT22;9641;51.494;6.670;2023-02-28T13:28:09;13.90;99.90
19017;DHT22;9641;51.494;6.670;2023-02-28T13:31:04;14.70;99.90
19017;DHT22;9641;51.494;6.670;2023-02-28T13:33:32;13.50;99.90
19017;DHT22;9641;51.494;6.670;2023-02-28T13:36:12;12.40;99.90
19017;DHT22;9641;51.494;6.670;2023-02-28T13:38:50;12.00;99.90
19017;DHT22;9641;51.494;6.670;2023-02-28T13:41:41;11.00;99.90
19017;DHT22;9641;51.494;6.670;2023-02-28T13:44:09;12.70;99.90
19017;DHT22;9641;51.494;6.670;2023-02-28T13:49:44;14.10;99.90
19017;DHT22;9641;51.494;6.670;2023-02-28T13:52:16;14.20;99.90
19017;DHT22;9641;51.494;6.670;2023-02-28T13:57:58;13.40;99.90
19017;DHT22;9641;51.494;6.670;2023-02-28T14:00:37;12.80;99.90
19017;DHT22;9641;51.494;6.670;2023-02-28T14:03:19;12.00;99.90
19017;DHT22;9641;51.494;6.670;2023-02-28T14:06:08;11.80;99.90
19017;DHT22;9641;51.494;6.670;2023-02-28T14:08:36;11.10;99.90
19017;DHT22;9641;51.494;6.670;2023-02-28T14:11:06;10.70;99.90
19017;DHT22;9641;51.494;6.670;2023-02-28T14:13:41;10.80;99.90
19017;DHT22;9641;51.494;6.670;2023-02-28T14:16:13;10.80;99.90
19017;DHT22;9641;51.494;6.670;2023-02-28T14:18:51;10.40;99.90
19017;DHT22;9641;51.494;6.670;2023-02-28T14:21:23;9.90;99.90
19017;DHT22;9641;51.494;6.670;2023-02-28T14:27:21;9.10;99.90
19017;DHT22;9641;51.494;6.670;2023-02-28T14:30:04;9.90;99.90
19017;DHT22;9641;51.494;6.670;2023-02-28T14:32:44;9.60;99.90
19017;DHT22;9641;51.494;6.670;2023-02-28T14:35:22;9.30;99.90
19017;DHT22;9641;51.494;6.670;2023-02-28T14:37:53;9.70;99.90
19017;DHT22;9641;51.494;6.670;2023-02-28T14:40:25;9.70;99.90
19017;DHT22;9641;51.494;6.670;2023-02-28T14:42:56;10.00;99.90
19017;DHT22;9641;51.494;6.670;2023-02-28T14:45:23;9.90;99.90
19017;DHT22;9641;51.494;6.670;2023-02-28T14:47:51;10.20;99.90
19017;DHT22;9641;51.494;6.670;2023-02-28T14:50:22;9.80;99.90
19017;DHT22;9641;51.494;6.670;2023-02-28T14:52:52;8.80;99.90
19017;DHT22;9641;51.494;6.670;2023-02-28T14:55:24;8.70;99.90
19017;DHT22;9641;51.494;6.670;2023-02-28T14:57:53;9.40;99.90
19017;DHT22;9641;51.494;6.670;2023-02-28T15:00:23;9.60;99.90
19017;DHT22;9641;51.494;6.670;2023-02-28T15:02:52;10.20;99.90
19017;DHT22;9641;51.494;6.670;2023-02-28T15:05:28;10.60;99.90
19017;DHT22;9641;51.494;6.670;2023-02-28T15:08:05;11.70;99.90
19017;DHT22;9641;51.494;6.670;2023-02-28T15:10:33;12.40;99.90
19017;DHT22;9641;51.494;6.670;2023-02-28T15:13:02;11.70;99.90
19017;DHT22;9641;51.494;6.670;2023-02-28T15:15:40;11.50;99.90
19017;DHT22;9641;51.494;6.670;2023-02-28T15:18:12;10.20;99.90
19017;DHT22;9641;51.494;6.670;2023-02-28T15:20:44;9.20;99.90
19017;DHT22;9641;51.494;6.670;2023-02-28T15:23:11;9.00;99.90
19017;DHT22;9641;51.494;6.670;2023-02-28T15:25:40;8.90;99.90
19017;DHT22;9641;51.494;6.670;2023-02-28T15:28:14;7.80;99.90
19017;DHT22;9641;51.494;6.670;2023-02-28T15:30:51;6.80;99.90
19017;DHT22;9641;51.494;6.670;2023-02-28T15:33:20;6.30;99.90
19017;DHT22;9641;51.494;6.670;2023-02-28T15:35:48;6.30;99.90
19017;DHT22;9641;51.494;6.670;2023-02-28T15:38:18;6.10;99.90
19017;DHT22;9641;51.494;6.670;2023-02-28T15:40:51;5.90;99.90
19017;DHT22;9641;51.494;6.670;2023-02-28T15:43:24;5.80;99.90
19017;DHT22;9641;51.494;6.670;2023-02-28T15:45:56;5.70;99.90
19017;DHT22;9641;51.494;6.670;2023-02-28T15:48:27;5.70;99.90
19017;DHT22;9641;51.494;6.670;2023-02-28T15:50:57;5.50;99.90
19017;DHT22;9641;51.494;6.670;2023-02-28T15:53:30;5.50;99.90
19017;DHT22;9641;51.494;6.670;2023-02-28T15:56:00;5.50;99.90
19017;DHT22;9641;51.494;6.670;2023-02-28T15:58:29;5.40;99.90
19017;DHT22;9641;51.494;6.670;2023-02-28T16:01:08;5.50;99.90
19017;DHT22;9641;51.494;6.670;2023-02-28T16:03:40;5.50;99.90
19017;DHT22;9641;51.494;6.670;2023-02-28T16:06:38;5.40;99.90
19017;DHT22;9641;51.494;6.670;2023-02-28T16:09:10;5.40;99.90
19017;DHT22;9641;51.494;6.670;2023-02-28T16:11:43;5.40;99.90
19017;DHT22;9641;51.494;6.670;2023-02-28T16:14:16;5.30;99.90
19017;DHT22;9641;51.494;6.670;2023-02-28T16:16:45;5.30;99.90
19017;DHT22;9641;51.494;6.670;2023-02-28T16:19:12;5.20;99.90
19017;DHT22;9641;51.494;6.670;2023-02-28T16:21:40;5.10;99.90
19017;DHT22;9641;51.494;6.670;2023-02-28T16:24:07;5.20;99.90
19017;DHT22;9641;51.494;6.670;2023-02-28T16:26:34;5.10;99.90
19017;DHT22;9641;51.494;6.670;2023-02-28T16:29:03;5.10;99.90
19017;DHT22;9641;51.494;6.670;2023-02-28T16:31:37;5.00;99.90
19017;DHT22;9641;51.494;6.670;2023-02-28T16:34:04;4.90;99.90
19017;DHT22;9641;51.494;6.670;2023-02-28T16:36:31;4.90;99.90
19017;DHT22;9641;51.494;6.670;2023-02-28T16:39:00;4.90;99.90
19017;DHT22;9641;51.494;6.670;2023-02-28T16:41:28;4.80;99.90
19017;DHT22;9641;51.494;6.670;2023-02-28T16:43:58;4.80;99.90